createdAt,value
2022-07-25T00:08:01.755Z,17.20
2022-07-25T00:18:08.872Z,16.00
2022-07-25T00:28:12.518Z,16.10
2022-07-25T00:38:16.366Z,16.40
2022-07-25T00:48:19.957Z,12.30
2022-07-25T00:58:23.311Z,13.50
2022-07-25T01:08:32.253Z,12.50
2022-07-25T01:18:37.093Z,14.50
2022-07-25T01:28:41.005Z,14.00
2022-07-25T01:38:44.644Z,13.40
2022-07-25T01:48:48.250Z,15.00
2022-07-25T01:58:51.982Z,16.70
2022-07-25T02:08:55.777Z,12.30
2022-07-25T02:18:59.325Z,15.10
2022-07-25T02:29:03.100Z,16.10
2022-07-25T02:39:06.795Z,13.10
2022-07-25T02:49:10.496Z,12.00
2022-07-25T02:59:14.429Z,12.20
2022-07-25T03:09:18.660Z,15.40
2022-07-25T03:19:22.229Z,17.10
2022-07-25T03:29:26.509Z,13.50
2022-07-25T03:39:30.391Z,12.40
2022-07-25T03:49:35.571Z,18.80
2022-07-25T03:59:39.437Z,15.10
2022-07-25T04:09:43.037Z,10.10
2022-07-25T04:19:46.514Z,8.30
2022-07-25T04:29:50.415Z,13.40
2022-07-25T04:39:53.935Z,9.70
2022-07-25T04:49:57.518Z,8.10
2022-07-25T05:00:01.405Z,5.80
2022-07-25T05:10:04.066Z,8.20
2022-07-25T05:20:10.009Z,6.60
2022-07-25T05:30:13.351Z,9.60
2022-07-25T05:40:18.882Z,10.00
2022-07-25T05:50:25.398Z,10.90
2022-07-25T06:00:29.437Z,8.60
2022-07-25T06:10:32.980Z,6.50
2022-07-25T06:20:36.718Z,5.00
2022-07-25T06:55:40.976Z,8.40
2022-07-25T07:05:48.296Z,30.80
2022-07-25T07:15:54.919Z,3.10
2022-07-25T07:26:00.753Z,6.70
2022-07-25T07:36:05.568Z,5.50
2022-07-25T07:46:13.341Z,4.60
2022-07-25T07:56:19.144Z,5.40
2022-07-25T08:06:27.951Z,2.20
2022-07-25T08:16:35.453Z,3.40
2022-07-25T08:26:42.886Z,4.50
2022-07-25T08:36:50.449Z,4.50
2022-07-25T08:46:58.088Z,2.20
2022-07-25T08:57:04.395Z,2.50
2022-07-25T09:07:10.650Z,3.90
2022-07-25T09:17:22.302Z,4.70
2022-07-25T09:27:35.687Z,3.80
2022-07-25T09:37:42.970Z,1.90
2022-07-25T09:47:54.022Z,3.00
2022-07-25T09:58:01.338Z,6.10
2022-07-25T10:08:09.185Z,3.90
2022-07-25T10:18:18.657Z,2.10
2022-07-25T10:28:36.302Z,10.20
2022-07-25T10:38:45.525Z,1.90
2022-07-25T10:48:58.999Z,3.30
2022-07-25T10:59:06.804Z,1.80
2022-07-25T11:09:19.127Z,1.50
2022-07-25T11:19:30.482Z,1.60
2022-07-25T11:30:09.443Z,1.30
2022-07-25T11:40:16.702Z,4.00
2022-07-25T11:50:30.581Z,1.90
2022-07-25T12:00:35.837Z,5.00
2022-07-25T12:10:43.795Z,2.60
2022-07-25T12:20:51.235Z,2.50
2022-07-25T12:30:58.391Z,1.80
2022-07-25T12:41:06.015Z,2.90
2022-07-25T12:51:13.095Z,3.90
2022-07-25T13:01:20.371Z,3.10
2022-07-25T13:11:27.540Z,2.00
2022-07-25T13:21:34.598Z,5.30
2022-07-25T13:31:39.542Z,3.30
2022-07-25T13:41:47.289Z,2.50
2022-07-25T13:51:54.750Z,2.50
2022-07-25T14:02:02.028Z,3.70
2022-07-25T14:12:10.085Z,1.90
2022-07-25T14:22:17.540Z,2.30
2022-07-25T14:32:25.126Z,4.30
2022-07-25T14:42:33.224Z,8.40
2022-07-25T14:52:41.005Z,4.00
2022-07-25T15:02:47.131Z,2.50
2022-07-25T15:13:07.818Z,3.50
2022-07-25T15:23:21.355Z,2.40
2022-07-25T15:33:28.846Z,3.00
2022-07-25T15:43:35.882Z,5.50
2022-07-25T15:53:42.993Z,3.90
2022-07-25T16:03:50.441Z,6.20
2022-07-25T16:13:57.674Z,7.10
2022-07-25T16:24:04.872Z,5.30
2022-07-25T16:34:12.226Z,2.40
2022-07-25T16:44:19.726Z,3.70
2022-07-25T16:54:25.890Z,6.70
2022-07-25T17:04:34.347Z,7.90
2022-07-25T17:14:41.592Z,4.90
2022-07-25T17:24:48.956Z,7.40
2022-07-25T17:34:55.297Z,3.30
2022-07-25T17:45:01.442Z,3.00
2022-07-25T17:55:07.270Z,10.20
2022-07-25T18:05:15.206Z,4.60
2022-07-25T18:15:22.642Z,2.80
2022-07-25T18:25:29.741Z,2.10
2022-07-25T18:35:37.612Z,5.10
2022-07-25T18:45:46.872Z,2.90
2022-07-25T18:55:53.927Z,4.10
2022-07-25T19:06:03.433Z,7.30
2022-07-25T19:16:12.084Z,8.90
2022-07-25T19:26:19.858Z,9.30
2022-07-25T19:36:27.124Z,5.80
2022-07-25T19:46:33.284Z,4.20
2022-07-25T19:56:39.863Z,5.80
2022-07-25T20:06:47.367Z,5.90
2022-07-25T20:16:53.713Z,9.60
2022-07-25T20:26:59.905Z,3.60
2022-07-25T20:37:07.008Z,2.40
2022-07-25T20:47:13.894Z,2.80
2022-07-25T20:57:22.544Z,9.00
2022-07-25T21:07:29.625Z,4.90
2022-07-25T21:17:36.158Z,3.40
2022-07-25T21:27:42.288Z,6.00
2022-07-25T21:37:50.470Z,3.20
2022-07-25T21:47:57.706Z,5.10
2022-07-25T21:58:10.246Z,5.20
2022-07-25T22:08:17.404Z,5.70
2022-07-25T22:18:23.632Z,4.00
2022-07-25T22:28:30.810Z,8.30
2022-07-25T22:38:38.361Z,6.60
2022-07-25T22:48:45.616Z,13.40
2022-07-25T22:58:53.493Z,7.10
2022-07-25T23:09:00.888Z,4.20
2022-07-25T23:19:08.719Z,6.10
2022-07-25T23:29:16.106Z,5.10
2022-07-25T23:39:23.327Z,7.40
2022-07-25T23:49:30.519Z,5.00
2022-07-25T23:59:38.026Z,5.00
